sensor_id;sensor_type;location;lat;lon;timestamp;pressure;altitude;pressure_sealevel;temperature;humidity
9746;BME280;4912;50.836;12.958;2023-02-20T00:00:33;98476.09;;;5.92;100.00
9746;BME280;4912;50.836;12.958;2023-02-20T00:03:04;98472.56;;;5.92;100.00
9746;BME280;4912;50.836;12.958;2023-02-20T00:05:35;98467.84;;;5.92;100.00
9746;BME280;4912;50.836;12.958;2023-02-20T00:08:05;98470.97;;;5.94;100.00
9746;BME280;4912;50.836;12.958;2023-02-20T00:10:36;98473.34;;;5.92;100.00
9746;BME280;4912;50.836;12.958;2023-02-20T00:13:06;98469.13;;;5.88;100.00
9746;BME280;4912;50.836;12.958;2023-02-20T00:15:39;98472.63;;;5.88;100.00
9746;BME280;4912;50.836;12.958;2023-02-20T00:18:10;98474.81;;;5.97;100.00
9746;BME280;4912;50.836;12.958;2023-02-20T00:20:40;98470.59;;;5.92;100.00
9746;BME280;4912;50.836;12.958;2023-02-20T00:23:11;98466.38;;;5.84;100.00
9746;BME280;4912;50.836;12.958;2023-02-20T00:25:41;98467.84;;;5.92;100.00
9746;BME280;4912;50.836;12.958;2023-02-20T00:28:12;98471.53;;;6.05;100.00
9746;BME280;4912;50.836;12.958;2023-02-20T00:30:45;98478.28;;;6.21;100.00
9746;BME280;4912;50.836;12.958;2023-02-20T00:33:15;98468.38;;;6.27;100.00
9746;BME280;4912;50.836;12.958;2023-02-20T00:35:48;98471.88;;;6.27;100.00
9746;BME280;4912;50.836;12.958;2023-02-20T00:38:18;98462.88;;;6.27;100.00
9746;BME280;4912;50.836;12.958;2023-02-20T00:40:48;98465.41;;;6.18;100.00
9746;BME280;4912;50.836;12.958;2023-02-20T00:43:19;98463.63;;;6.07;100.00
9746;BME280;4912;50.836;12.958;2023-02-20T00:45:52;98452.63;;;6.07;100.00
9746;BME280;4912;50.836;12.958;2023-02-20T00:48:22;98451.94;;;6.03;100.00
9746;BME280;4912;50.836;12.958;2023-02-20T00:51:13;98445.25;;;6.04;100.00
9746;BME280;4912;50.836;12.958;2023-02-20T00:53:44;98455.34;;;6.11;100.00
9746;BME280;4912;50.836;12.958;2023-02-20T00:56:15;98450.25;;;6.09;100.00
9746;BME280;4912;50.836;12.958;2023-02-20T00:58:46;98442.44;;;6.08;100.00
9746;BME280;4912;50.836;12.958;2023-02-20T01:01:19;98448.38;;;6.06;100.00
9746;BME280;4912;50.836;12.958;2023-02-20T01:03:49;98455.88;;;6.02;100.00
9746;BME280;4912;50.836;12.958;2023-02-20T01:06:20;98444.88;;;6.02;100.00
9746;BME280;4912;50.836;12.958;2023-02-20T01:08:50;98436.88;;;6.11;100.00
9746;BME280;4912;50.836;12.958;2023-02-20T01:11:21;98434.63;;;6.06;100.00
9746;BME280;4912;50.836;12.958;2023-02-20T01:13:52;98435.19;;;6.18;100.00
9746;BME280;4912;50.836;12.958;2023-02-20T01:16:25;98430.53;;;6.14;100.00
9746;BME280;4912;50.836;12.958;2023-02-20T01:18:56;98414.91;;;6.11;100.00
9746;BME280;4912;50.836;12.958;2023-02-20T01:21:26;98414.81;;;6.15;100.00
9746;BME280;4912;50.836;12.958;2023-02-20T01:23:56;98404.19;;;6.17;100.00
9746;BME280;4912;50.836;12.958;2023-02-20T01:26:27;98404.88;;;6.21;100.00
9746;BME280;4912;50.836;12.958;2023-02-20T01:28:57;98404.75;;;6.28;100.00
9746;BME280;4912;50.836;12.958;2023-02-20T01:31:31;98413.44;;;6.43;100.00
9746;BME280;4912;50.836;12.958;2023-02-20T01:34:02;98418.66;;;6.57;100.00
9746;BME280;4912;50.836;12.958;2023-02-20T01:36:33;98424.00;;;6.64;100.00
9746;BME280;4912;50.836;12.958;2023-02-20T01:39:04;98428.13;;;6.72;100.00
9746;BME280;4912;50.836;12.958;2023-02-20T01:41:34;98426.78;;;6.80;100.00
9746;BME280;4912;50.836;12.958;2023-02-20T01:44:05;98423.50;;;6.85;100.00
9746;BME280;4912;50.836;12.958;2023-02-20T01:46:50;98416.66;;;6.93;100.00
9746;BME280;4912;50.836;12.958;2023-02-20T01:49:27;98413.19;;;6.89;100.00
9746;BME280;4912;50.836;12.958;2023-02-20T01:52:06;98406.94;;;6.89;100.00
9746;BME280;4912;50.836;12.958;2023-02-20T01:54:42;98416.13;;;6.98;100.00
9746;BME280;4912;50.836;12.958;2023-02-20T01:57:19;98420.78;;;7.02;100.00
9746;BME280;4912;50.836;12.958;2023-02-20T01:59:56;98410.53;;;7.02;100.00
9746;BME280;4912;50.836;12.958;2023-02-20T02:02:32;98407.38;;;7.04;100.00
9746;BME280;4912;50.836;12.958;2023-02-20T02:05:06;98414.06;;;7.03;100.00
9746;BME280;4912;50.836;12.958;2023-02-20T02:07:37;98418.88;;;6.98;100.00
9746;BME280;4912;50.836;12.958;2023-02-20T02:10:11;98409.69;;;7.05;100.00
9746;BME280;4912;50.836;12.958;2023-02-20T02:12:46;98409.84;;;6.98;100.00
9746;BME280;4912;50.836;12.958;2023-02-20T02:15:21;98414.22;;;6.95;100.00
9746;BME280;4912;50.836;12.958;2023-02-20T02:18:07;98409.00;;;7.01;100.00
9746;BME280;4912;50.836;12.958;2023-02-20T02:28:00;98409.69;;;7.05;100.00
9746;BME280;4912;50.836;12.958;2023-02-20T02:31:25;98398.75;;;7.02;100.00
9746;BME280;4912;50.836;12.958;2023-02-20T02:34:48;98385.53;;;6.96;100.00
9746;BME280;4912;50.836;12.958;2023-02-20T02:37:47;98380.19;;;6.89;100.00
9746;BME280;4912;50.836;12.958;2023-02-20T02:40:25;98379.50;;;6.85;100.00
9746;BME280;4912;50.836;12.958;2023-02-20T02:43:05;98383.13;;;6.82;100.00
9746;BME280;4912;50.836;12.958;2023-02-20T02:45:44;98375.81;;;6.76;100.00
9746;BME280;4912;50.836;12.958;2023-02-20T02:48:26;98367.03;;;6.81;100.00
9746;BME280;4912;50.836;12.958;2023-02-20T02:51:01;98368.44;;;6.89;100.00
9746;BME280;4912;50.836;12.958;2023-02-20T02:53:39;98355.94;;;6.84;100.00
9746;BME280;4912;50.836;12.958;2023-02-20T02:56:10;98361.81;;;6.86;100.00
9746;BME280;4912;50.836;12.958;2023-02-20T02:58:57;98349.84;;;6.93;100.00
9746;BME280;4912;50.836;12.958;2023-02-20T03:01:30;98351.84;;;6.92;100.00
9746;BME280;4912;50.836;12.958;2023-02-20T03:04:03;98349.25;;;6.85;100.00
9746;BME280;4912;50.836;12.958;2023-02-20T03:06:41;98344.00;;;6.91;100.00
9746;BME280;4912;50.836;12.958;2023-02-20T03:09:18;98347.09;;;6.93;100.00
9746;BME280;4912;50.836;12.958;2023-02-20T03:11:52;98346.69;;;6.94;100.00
9746;BME280;4912;50.836;12.958;2023-02-20T03:14:26;98343.25;;;7.07;100.00
9746;BME280;4912;50.836;12.958;2023-02-20T03:17:16;98345.28;;;7.03;100.00
9746;BME280;4912;50.836;12.958;2023-02-20T03:19:51;98351.66;;;6.99;100.00
9746;BME280;4912;50.836;12.958;2023-02-20T03:22:26;98340.97;;;7.02;100.00
9746;BME280;4912;50.836;12.958;2023-02-20T03:25:06;98339.94;;;6.95;100.00
9746;BME280;4912;50.836;12.958;2023-02-20T03:27:46;98344.50;;;7.02;100.00
9746;BME280;4912;50.836;12.958;2023-02-20T03:30:24;98346.66;;;7.11;100.00
9746;BME280;4912;50.836;12.958;2023-02-20T03:33:02;98345.13;;;7.10;100.00
9746;BME280;4912;50.836;12.958;2023-02-20T03:35:47;98351.50;;;7.07;100.00
9746;BME280;4912;50.836;12.958;2023-02-20T03:38:33;98346.16;;;6.99;100.00
9746;BME280;4912;50.836;12.958;2023-02-20T03:41:22;98342.78;;;7.08;100.00
9746;BME280;4912;50.836;12.958;2023-02-20T03:44:10;98343.06;;;6.97;100.00
9746;BME280;4912;50.836;12.958;2023-02-20T03:46:42;98330.34;;;6.87;100.00
9746;BME280;4912;50.836;12.958;2023-02-20T03:49:19;98341.78;;;6.86;100.00
9746;BME280;4912;50.836;12.958;2023-02-20T03:51:50;98334.56;;;6.92;100.00
9746;BME280;4912;50.836;12.958;2023-02-20T03:54:32;98337.56;;;6.97;100.00
9746;BME280;4912;50.836;12.958;2023-02-20T03:57:10;98343.59;;;6.92;100.00
9746;BME280;4912;50.836;12.958;2023-02-20T03:59:48;98352.00;;;7.02;100.00
9746;BME280;4912;50.836;12.958;2023-02-20T04:02:24;98373.06;;;7.08;100.00
9746;BME280;4912;50.836;12.958;2023-02-20T04:05:03;98361.78;;;7.03;100.00
9746;BME280;4912;50.836;12.958;2023-02-20T04:07:40;98359.47;;;7.01;100.00
9746;BME280;4912;50.836;12.958;2023-02-20T04:10:17;98352.50;;;6.96;100.00
9746;BME280;4912;50.836;12.958;2023-02-20T04:12:55;98349.59;;;7.04;100.00
9746;BME280;4912;50.836;12.958;2023-02-20T04:15:27;98345.28;;;7.03;100.00
9746;BME280;4912;50.836;12.958;2023-02-20T04:18:05;98342.47;;;7.06;100.00
9746;BME280;4912;50.836;12.958;2023-02-20T04:20:40;98339.34;;;7.04;100.00
9746;BME280;4912;50.836;12.958;2023-02-20T04:23:22;98343.41;;;6.99;100.00
9746;BME280;4912;50.836;12.958;2023-02-20T04:25:58;98343.84;;;6.98;100.00
9746;BME280;4912;50.836;12.958;2023-02-20T04:28:36;98350.72;;;7.06;100.00
9746;BME280;4912;50.836;12.958;2023-02-20T04:31:09;98343.03;;;7.14;100.00
9746;BME280;4912;50.836;12.958;2023-02-20T04:33:41;98344.75;;;7.08;100.00
9746;BME280;4912;50.836;12.958;2023-02-20T04:36:23;98330.59;;;7.09;100.00
9746;BME280;4912;50.836;12.958;2023-02-20T04:38:56;98331.00;;;7.08;100.00
9746;BME280;4912;50.836;12.958;2023-02-20T04:41:30;98327.94;;;7.06;100.00
9746;BME280;4912;50.836;12.958;2023-02-20T04:44:04;98333.09;;;7.04;100.00
9746;BME280;4912;50.836;12.958;2023-02-20T04:46:48;98333.84;;;7.04;100.00
9746;BME280;4912;50.836;12.958;2023-02-20T04:49:20;98349.94;;;7.06;100.00
9746;BME280;4912;50.836;12.958;2023-02-20T04:51:53;98346.00;;;7.07;100.00
9746;BME280;4912;50.836;12.958;2023-02-20T04:54:24;98360.78;;;7.13;100.00
9746;BME280;4912;50.836;12.958;2023-02-20T04:56:55;98350.28;;;7.24;100.00
9746;BME280;4912;50.836;12.958;2023-02-20T04:59:28;98345.97;;;7.23;100.00
9746;BME280;4912;50.836;12.958;2023-02-20T05:01:58;98336.25;;;7.18;100.00
9746;BME280;4912;50.836;12.958;2023-02-20T05:04:29;98347.06;;;7.25;100.00
9746;BME280;4912;50.836;12.958;2023-02-20T05:07:00;98345.63;;;7.21;100.00
9746;BME280;4912;50.836;12.958;2023-02-20T05:09:31;98331.88;;;7.05;100.00
9746;BME280;4912;50.836;12.958;2023-02-20T05:12:02;98327.16;;;7.05;100.00
9746;BME280;4912;50.836;12.958;2023-02-20T05:14:35;98331.22;;;7.01;100.00
9746;BME280;4912;50.836;12.958;2023-02-20T05:17:06;98328.09;;;6.98;100.00
9746;BME280;4912;50.836;12.958;2023-02-20T05:19:36;98326.13;;;6.99;100.00
9746;BME280;4912;50.836;12.958;2023-02-20T05:22:08;98320.63;;;6.99;100.00
9746;BME280;4912;50.836;12.958;2023-02-20T05:24:49;98315.72;;;6.90;100.00
9746;BME280;4912;50.836;12.958;2023-02-20T05:27:21;98308.75;;;6.86;100.00
9746;BME280;4912;50.836;12.958;2023-02-20T05:29:56;98307.31;;;6.81;100.00
9746;BME280;4912;50.836;12.958;2023-02-20T05:32:29;98295.63;;;6.77;100.00
9746;BME280;4912;50.836;12.958;2023-02-20T05:35:00;98288.50;;;6.80;100.00
9746;BME280;4912;50.836;12.958;2023-02-20T05:37:30;98308.50;;;6.80;100.00
9746;BME280;4912;50.836;12.958;2023-02-20T05:40:01;98315.22;;;6.79;100.00
9746;BME280;4912;50.836;12.958;2023-02-20T05:42:31;98304.22;;;6.79;100.00
9746;BME280;4912;50.836;12.958;2023-02-20T05:45:07;98305.09;;;6.76;100.00
9746;BME280;4912;50.836;12.958;2023-02-20T05:47:38;98296.13;;;6.72;100.00
9746;BME280;4912;50.836;12.958;2023-02-20T05:50:08;98295.81;;;6.70;100.00
9746;BME280;4912;50.836;12.958;2023-02-20T05:52:39;98279.22;;;6.74;100.00
9746;BME280;4912;50.836;12.958;2023-02-20T05:55:10;98272.16;;;6.73;100.00
9746;BME280;4912;50.836;12.958;2023-02-20T05:57:41;98268.56;;;6.76;100.00
9746;BME280;4912;50.836;12.958;2023-02-20T06:00:15;98262.03;;;6.70;100.00
9746;BME280;4912;50.836;12.958;2023-02-20T06:02:46;98280.34;;;6.76;100.00
9746;BME280;4912;50.836;12.958;2023-02-20T06:05:16;98290.63;;;6.72;100.00
9746;BME280;4912;50.836;12.958;2023-02-20T06:07:47;98285.13;;;6.72;100.00
9746;BME280;4912;50.836;12.958;2023-02-20T06:10:18;98278.69;;;6.79;100.00
9746;BME280;4912;50.836;12.958;2023-02-20T06:12:49;98283.09;;;6.76;100.00
9746;BME280;4912;50.836;12.958;2023-02-20T06:15:22;98277.59;;;6.76;100.00
9746;BME280;4912;50.836;12.958;2023-02-20T06:17:52;98290.97;;;6.90;100.00
9746;BME280;4912;50.836;12.958;2023-02-20T06:20:22;98281.09;;;6.93;100.00
9746;BME280;4912;50.836;12.958;2023-02-20T06:22:53;98285.13;;;6.88;100.00
9746;BME280;4912;50.836;12.958;2023-02-20T06:25:23;98285.91;;;6.89;100.00
9746;BME280;4912;50.836;12.958;2023-02-20T06:27:54;98276.88;;;6.88;100.00
9746;BME280;4912;50.836;12.958;2023-02-20T06:30:29;98273.97;;;6.79;100.00
9746;BME280;4912;50.836;12.958;2023-02-20T06:33:00;98290.53;;;6.92;100.00
9746;BME280;4912;50.836;12.958;2023-02-20T06:35:30;98287.78;;;6.92;100.00
9746;BME280;4912;50.836;12.958;2023-02-20T06:38:01;98289.88;;;6.88;100.00
9746;BME280;4912;50.836;12.958;2023-02-20T06:40:31;98277.22;;;6.90;100.00
9746;BME280;4912;50.836;12.958;2023-02-20T06:43:01;98269.41;;;6.89;100.00
9746;BME280;4912;50.836;12.958;2023-02-20T06:45:34;98270.88;;;6.93;100.00
9746;BME280;4912;50.836;12.958;2023-02-20T06:48:05;98278.63;;;6.82;100.00
9746;BME280;4912;50.836;12.958;2023-02-20T06:50:36;98271.81;;;6.87;100.00
9746;BME280;4912;50.836;12.958;2023-02-20T06:53:06;98268.63;;;6.88;100.00
9746;BME280;4912;50.836;12.958;2023-02-20T06:55:37;98264.66;;;6.89;100.00
9746;BME280;4912;50.836;12.958;2023-02-20T06:58:07;98263.91;;;6.89;100.00
9746;BME280;4912;50.836;12.958;2023-02-20T07:00:41;98255.91;;;6.94;100.00
9746;BME280;4912;50.836;12.958;2023-02-20T07:03:11;98244.81;;;6.98;100.00
9746;BME280;4912;50.836;12.958;2023-02-20T07:05:42;98240.41;;;7.01;100.00
9746;BME280;4912;50.836;12.958;2023-02-20T07:08:12;98252.16;;;7.01;99.63
9746;BME280;4912;50.836;12.958;2023-02-20T07:10:42;98246.25;;;7.03;98.25
9746;BME280;4912;50.836;12.958;2023-02-20T07:13:13;98242.53;;;7.09;97.96
9746;BME280;4912;50.836;12.958;2023-02-20T07:15:46;98245.53;;;7.15;97.32
9746;BME280;4912;50.836;12.958;2023-02-20T07:18:17;98250.66;;;7.29;96.94
9746;BME280;4912;50.836;12.958;2023-02-20T07:20:50;98254.19;;;7.29;94.95
9746;BME280;4912;50.836;12.958;2023-02-20T07:23:21;98251.19;;;7.24;94.87
9746;BME280;4912;50.836;12.958;2023-02-20T07:25:52;98248.75;;;7.26;94.64
9746;BME280;4912;50.836;12.958;2023-02-20T07:28:22;98248.56;;;7.33;95.00
9746;BME280;4912;50.836;12.958;2023-02-20T07:30:55;98245.97;;;7.42;94.31
9746;BME280;4912;50.836;12.958;2023-02-20T07:33:26;98230.19;;;7.43;94.29
9746;BME280;4912;50.836;12.958;2023-02-20T07:35:56;98228.22;;;7.43;94.40
9746;BME280;4912;50.836;12.958;2023-02-20T07:38:26;98217.69;;;7.54;94.45
9746;BME280;4912;50.836;12.958;2023-02-20T07:40:56;98219.47;;;7.61;94.05
9746;BME280;4912;50.836;12.958;2023-02-20T07:43:27;98214.41;;;7.59;93.53
9746;BME280;4912;50.836;12.958;2023-02-20T07:46:00;98208.25;;;7.68;94.01
9746;BME280;4912;50.836;12.958;2023-02-20T07:48:30;98216.41;;;7.71;93.33
9746;BME280;4912;50.836;12.958;2023-02-20T07:51:03;98208.81;;;7.75;92.52
9746;BME280;4912;50.836;12.958;2023-02-20T07:53:33;98208.16;;;7.71;93.02
9746;BME280;4912;50.836;12.958;2023-02-20T07:56:04;98197.66;;;7.79;92.62
9746;BME280;4912;50.836;12.958;2023-02-20T07:58:35;98190.72;;;7.74;92.86
9746;BME280;4912;50.836;12.958;2023-02-20T08:01:08;98192.06;;;7.82;92.87
9746;BME280;4912;50.836;12.958;2023-02-20T08:03:38;98177.63;;;7.91;92.15
9746;BME280;4912;50.836;12.958;2023-02-20T08:06:09;98185.03;;;7.94;91.64
9746;BME280;4912;50.836;12.958;2023-02-20T08:08:40;98192.94;;;8.05;90.38
9746;BME280;4912;50.836;12.958;2023-02-20T08:11:10;98204.06;;;8.27;89.25
9746;BME280;4912;50.836;12.958;2023-02-20T08:13:41;98196.03;;;8.79;85.59
9746;BME280;4912;50.836;12.958;2023-02-20T08:16:15;98194.56;;;9.00;82.08
9746;BME280;4912;50.836;12.958;2023-02-20T08:18:45;98199.44;;;10.23;75.55
9746;BME280;4912;50.836;12.958;2023-02-20T08:21:16;98195.56;;;10.97;70.64
9746;BME280;4912;50.836;12.958;2023-02-20T08:23:46;98163.09;;;11.16;68.06
9746;BME280;4912;50.836;12.958;2023-02-20T08:26:18;98159.69;;;11.30;67.16
9746;BME280;4912;50.836;12.958;2023-02-20T08:28:49;98161.53;;;11.33;66.07
9746;BME280;4912;50.836;12.958;2023-02-20T08:31:23;98137.06;;;11.31;65.58
9746;BME280;4912;50.836;12.958;2023-02-20T08:33:59;98137.56;;;10.57;67.72
9746;BME280;4912;50.836;12.958;2023-02-20T08:36:29;98156.81;;;10.11;71.31
9746;BME280;4912;50.836;12.958;2023-02-20T08:39:00;98155.53;;;10.03;72.57
9746;BME280;4912;50.836;12.958;2023-02-20T08:41:31;98150.06;;;10.12;71.96
9746;BME280;4912;50.836;12.958;2023-02-20T08:44:01;98144.03;;;10.54;70.81
9746;BME280;4912;50.836;12.958;2023-02-20T08:46:34;98146.78;;;10.90;69.20
9746;BME280;4912;50.836;12.958;2023-02-20T08:49:05;98121.28;;;10.59;68.48
9746;BME280;4912;50.836;12.958;2023-02-20T08:51:35;98156.28;;;10.35;70.41
9746;BME280;4912;50.836;12.958;2023-02-20T08:54:06;98151.47;;;10.17;71.96
9746;BME280;4912;50.836;12.958;2023-02-20T08:56:37;98132.59;;;10.24;72.05
9746;BME280;4912;50.836;12.958;2023-02-20T08:59:07;98154.09;;;10.20;71.64
9746;BME280;4912;50.836;12.958;2023-02-20T09:01:42;98143.38;;;10.41;71.12
9746;BME280;4912;50.836;12.958;2023-02-20T09:04:13;98141.56;;;10.47;71.14
9746;BME280;4912;50.836;12.958;2023-02-20T09:06:45;98154.47;;;10.50;70.73
9746;BME280;4912;50.836;12.958;2023-02-20T09:09:16;98148.47;;;10.60;70.17
9746;BME280;4912;50.836;12.958;2023-02-20T09:11:46;98145.59;;;10.82;68.72
9746;BME280;4912;50.836;12.958;2023-02-20T09:14:17;98141.13;;;10.76;68.12
9746;BME280;4912;50.836;12.958;2023-02-20T09:16:53;98134.50;;;10.91;67.92
9746;BME280;4912;50.836;12.958;2023-02-20T09:19:23;98156.97;;;10.93;66.97
9746;BME280;4912;50.836;12.958;2023-02-20T09:21:54;98150.19;;;10.94;67.19
9746;BME280;4912;50.836;12.958;2023-02-20T09:24:24;98148.47;;;11.24;66.29
9746;BME280;4912;50.836;12.958;2023-02-20T09:26:58;98144.16;;;11.14;65.52
9746;BME280;4912;50.836;12.958;2023-02-20T09:29:28;98148.81;;;10.99;65.46
9746;BME280;4912;50.836;12.958;2023-02-20T09:32:01;98149.88;;;10.83;66.06
9746;BME280;4912;50.836;12.958;2023-02-20T09:34:32;98143.88;;;10.85;67.20
9746;BME280;4912;50.836;12.958;2023-02-20T09:37:03;98118.81;;;10.79;66.29
9746;BME280;4912;50.836;12.958;2023-02-20T09:39:34;98147.25;;;10.80;65.92
9746;BME280;4912;50.836;12.958;2023-02-20T09:42:14;98143.88;;;10.66;65.90
9746;BME280;4912;50.836;12.958;2023-02-20T09:44:58;98135.72;;;10.81;65.91
9746;BME280;4912;50.836;12.958;2023-02-20T09:47:58;98116.31;;;11.08;64.83
9746;BME280;4912;50.836;12.958;2023-02-20T09:50:41;98121.28;;;10.95;64.23
9746;BME280;4912;50.836;12.958;2023-02-20T09:53:19;98120.34;;;10.98;64.57
9746;BME280;4912;50.836;12.958;2023-02-20T09:55:54;98123.13;;;10.98;64.83
9746;BME280;4912;50.836;12.958;2023-02-20T09:58:27;98157.88;;;10.99;65.05
9746;BME280;4912;50.836;12.958;2023-02-20T10:01:05;98120.94;;;11.02;63.62
9746;BME280;4912;50.836;12.958;2023-02-20T10:03:51;98123.28;;;11.13;63.62
9746;BME280;4912;50.836;12.958;2023-02-20T10:06:25;98113.88;;;11.11;62.40
9746;BME280;4912;50.836;12.958;2023-02-20T10:08:57;98102.75;;;11.20;61.61
9746;BME280;4912;50.836;12.958;2023-02-20T10:11:39;98100.44;;;11.36;60.37
9746;BME280;4912;50.836;12.958;2023-02-20T10:14:32;98087.75;;;11.54;60.36
9746;BME280;4912;50.836;12.958;2023-02-20T10:17:17;98083.22;;;11.74;59.95
9746;BME280;4912;50.836;12.958;2023-02-20T10:20:01;98074.47;;;12.00;58.52
9746;BME280;4912;50.836;12.958;2023-02-20T10:22:37;98097.50;;;12.15;56.87
9746;BME280;4912;50.836;12.958;2023-02-20T10:25:19;98090.16;;;12.03;56.88
9746;BME280;4912;50.836;12.958;2023-02-20T10:27:53;98102.75;;;12.13;55.79
9746;BME280;4912;50.836;12.958;2023-02-20T10:30:31;98080.81;;;12.62;54.87
9746;BME280;4912;50.836;12.958;2023-02-20T10:33:13;98094.13;;;13.11;52.89
9746;BME280;4912;50.836;12.958;2023-02-20T10:35:54;98084.19;;;13.34;51.75
9746;BME280;4912;50.836;12.958;2023-02-20T10:38:32;98100.19;;;14.04;50.33
9746;BME280;4912;50.836;12.958;2023-02-20T10:41:09;98082.47;;;14.21;50.38
9746;BME280;4912;50.836;12.958;2023-02-20T10:43:48;98087.81;;;14.40;48.33
9746;BME280;4912;50.836;12.958;2023-02-20T10:46:28;98079.34;;;14.49;48.15
9746;BME280;4912;50.836;12.958;2023-02-20T10:49:18;98091.22;;;14.49;48.16
9746;BME280;4912;50.836;12.958;2023-02-20T10:51:56;98078.53;;;14.68;48.29
9746;BME280;4912;50.836;12.958;2023-02-20T10:54:33;98063.53;;;14.60;46.48
9746;BME280;4912;50.836;12.958;2023-02-20T10:57:14;98077.41;;;14.81;46.61
9746;BME280;4912;50.836;12.958;2023-02-20T10:59:50;98070.66;;;14.67;46.94
9746;BME280;4912;50.836;12.958;2023-02-20T11:02:27;98060.75;;;14.86;46.48
9746;BME280;4912;50.836;12.958;2023-02-20T11:05:06;98076.44;;;15.09;46.22
9746;BME280;4912;50.836;12.958;2023-02-20T11:07:41;98064.28;;;15.38;44.38
9746;BME280;4912;50.836;12.958;2023-02-20T11:10:11;98051.94;;;15.76;44.14
9746;BME280;4912;50.836;12.958;2023-02-20T11:12:44;98045.47;;;15.59;43.18
9746;BME280;4912;50.836;12.958;2023-02-20T11:15:19;98034.06;;;16.00;43.10
9746;BME280;4912;50.836;12.958;2023-02-20T11:17:52;98017.84;;;16.63;41.38
9746;BME280;4912;50.836;12.958;2023-02-20T11:20:52;98030.63;;;16.86;40.81
9746;BME280;4912;50.836;12.958;2023-02-20T11:23:39;98020.75;;;17.07;40.60
9746;BME280;4912;50.836;12.958;2023-02-20T11:26:29;97998.13;;;17.00;40.09
9746;BME280;4912;50.836;12.958;2023-02-20T11:29:11;97998.38;;;17.35;39.80
9746;BME280;4912;50.836;12.958;2023-02-20T11:31:44;97986.03;;;18.11;37.98
9746;BME280;4912;50.836;12.958;2023-02-20T11:34:18;97976.19;;;17.93;38.10
9746;BME280;4912;50.836;12.958;2023-02-20T11:36:51;97973.22;;;17.02;39.41
9746;BME280;4912;50.836;12.958;2023-02-20T11:39:28;97981.00;;;15.88;41.01
9746;BME280;4912;50.836;12.958;2023-02-20T11:42:05;97975.34;;;15.40;43.54
9746;BME280;4912;50.836;12.958;2023-02-20T11:44:41;97965.94;;;15.75;43.08
9746;BME280;4912;50.836;12.958;2023-02-20T11:47:24;97949.94;;;16.29;41.61
9746;BME280;4912;50.836;12.958;2023-02-20T11:50:11;97948.09;;;16.15;42.08
9746;BME280;4912;50.836;12.958;2023-02-20T11:52:57;97926.47;;;15.98;42.00
9746;BME280;4912;50.836;12.958;2023-02-20T11:55:34;97945.72;;;15.43;41.31
9746;BME280;4912;50.836;12.958;2023-02-20T11:58:10;97922.63;;;15.05;43.00
9746;BME280;4912;50.836;12.958;2023-02-20T12:00:52;97980.53;;;14.90;43.15
9746;BME280;4912;50.836;12.958;2023-02-20T12:03:24;97948.28;;;14.84;43.44
9746;BME280;4912;50.836;12.958;2023-02-20T12:05:58;97941.25;;;14.88;43.45
9746;BME280;4912;50.836;12.958;2023-02-20T12:08:48;97925.88;;;14.98;43.52
9746;BME280;4912;50.836;12.958;2023-02-20T12:11:26;97952.81;;;14.81;44.66
9746;BME280;4912;50.836;12.958;2023-02-20T12:13:58;97925.50;;;14.85;45.05
9746;BME280;4912;50.836;12.958;2023-02-20T12:16:49;97916.38;;;14.33;46.54
9746;BME280;4912;50.836;12.958;2023-02-20T12:19:38;97921.03;;;13.96;47.79
9746;BME280;4912;50.836;12.958;2023-02-20T12:22:21;97902.34;;;13.76;48.83
9746;BME280;4912;50.836;12.958;2023-02-20T12:25:13;97916.25;;;13.76;49.57
9746;BME280;4912;50.836;12.958;2023-02-20T12:28:01;97907.75;;;13.85;50.00
9746;BME280;4912;50.836;12.958;2023-02-20T12:30:51;97910.78;;;13.67;50.89
9746;BME280;4912;50.836;12.958;2023-02-20T12:33:48;97896.50;;;13.53;51.67
9746;BME280;4912;50.836;12.958;2023-02-20T12:36:30;97910.03;;;13.46;51.80
9746;BME280;4912;50.836;12.958;2023-02-20T12:39:06;97892.88;;;13.47;52.25
9746;BME280;4912;50.836;12.958;2023-02-20T12:41:51;97889.25;;;13.62;51.41
9746;BME280;4912;50.836;12.958;2023-02-20T12:44:48;97891.78;;;13.60;51.45
9746;BME280;4912;50.836;12.958;2023-02-20T12:47:29;97878.22;;;13.47;52.35
9746;BME280;4912;50.836;12.958;2023-02-20T12:50:24;97872.16;;;13.48;51.39
9746;BME280;4912;50.836;12.958;2023-02-20T12:53:09;97883.44;;;13.60;50.86
9746;BME280;4912;50.836;12.958;2023-02-20T12:55:53;97869.66;;;13.71;51.01
9746;BME280;4912;50.836;12.958;2023-02-20T12:58:44;97880.22;;;13.87;50.98
9746;BME280;4912;50.836;12.958;2023-02-20T13:01:21;97857.69;;;13.85;50.61
9746;BME280;4912;50.836;12.958;2023-02-20T13:04:16;97858.47;;;14.11;49.88
9746;BME280;4912;50.836;12.958;2023-02-20T13:06:59;97847.28;;;14.31;49.47
9746;BME280;4912;50.836;12.958;2023-02-20T13:09:35;97863.13;;;14.46;49.04
9746;BME280;4912;50.836;12.958;2023-02-20T13:12:10;97841.44;;;14.87;48.58
9746;BME280;4912;50.836;12.958;2023-02-20T13:14:55;97843.03;;;14.99;47.34
9746;BME280;4912;50.836;12.958;2023-02-20T13:17:40;97828.69;;;15.11;47.82
9746;BME280;4912;50.836;12.958;2023-02-20T13:20:18;97836.81;;;15.21;47.34
9746;BME280;4912;50.836;12.958;2023-02-20T13:22:58;97824.38;;;15.10;47.35
9746;BME280;4912;50.836;12.958;2023-02-20T13:25:34;97825.22;;;14.85;47.95
9746;BME280;4912;50.836;12.958;2023-02-20T13:28:36;97795.59;;;14.88;47.71
9746;BME280;4912;50.836;12.958;2023-02-20T13:31:17;97803.94;;;14.51;48.85
9746;BME280;4912;50.836;12.958;2023-02-20T13:34:26;97816.66;;;14.57;49.89
9746;BME280;4912;50.836;12.958;2023-02-20T13:36:59;97807.09;;;14.64;49.17
9746;BME280;4912;50.836;12.958;2023-02-20T13:39:37;97796.16;;;14.29;50.26
9746;BME280;4912;50.836;12.958;2023-02-20T13:42:29;97802.53;;;14.09;51.39
9746;BME280;4912;50.836;12.958;2023-02-20T13:45:36;97803.69;;;13.97;51.91
9746;BME280;4912;50.836;12.958;2023-02-20T13:48:38;97795.91;;;14.01;52.32
9746;BME280;4912;50.836;12.958;2023-02-20T13:51:30;97795.16;;;14.58;50.98
9746;BME280;4912;50.836;12.958;2023-02-20T13:54:25;97804.41;;;14.44;50.90
9746;BME280;4912;50.836;12.958;2023-02-20T13:56:59;97793.53;;;14.20;51.60
9746;BME280;4912;50.836;12.958;2023-02-20T13:59:32;97785.34;;;14.68;50.16
9746;BME280;4912;50.836;12.958;2023-02-20T14:02:15;97787.22;;;15.30;48.82
9746;BME280;4912;50.836;12.958;2023-02-20T14:04:58;97783.63;;;15.83;46.96
9746;BME280;4912;50.836;12.958;2023-02-20T14:07:35;97783.41;;;16.09;46.01